Time;durP1;ratioP1;P1;durP2;ratioP2;P2;SDS_P1;SDS_P2;PMS_P1;PMS_P2;Temp;Humidity;BMP_temperature;BMP_pressure;BME280_temperature;BME280_humidity;BME280_pressure;Samples;Min_cycle;Max_cycle;Signal;HPM_P1;HPM_P2
2021/03/09 00:02:20;;;;;;;64.00;33.80;;;4.40;99.90;;;;;;6126767;23;20409;-83
2021/03/09 00:04:46;;;;;;;67.70;35.10;;;4.50;99.90;;;;;;6126756;23;20521;-83
2021/03/09 00:07:13;;;;;;;72.30;40.20;;;4.50;99.90;;;;;;6124516;23;20438;-82
2021/03/09 00:09:42;;;;;;;83.93;42.23;;;4.50;99.90;;;;;;6126709;23;20403;-82
2021/03/09 00:12:09;;;;;;;77.47;36.33;;;4.60;99.90;;;;;;6126502;23;20403;-82
2021/03/09 00:14:38;;;;;;;75.80;36.67;;;4.40;99.90;;;;;;6137957;23;20407;-81
2021/03/09 00:17:05;;;;;;;76.10;39.23;;;4.30;99.90;;;;;;6136802;23;20415;-82
2021/03/09 00:19:31;;;;;;;77.47;38.10;;;4.30;99.90;;;;;;6126640;23;20403;-82
2021/03/09 00:21:58;;;;;;;72.03;38.30;;;4.30;99.90;;;;;;6134816;23;20450;-82
2021/03/09 00:24:27;;;;;;;75.63;40.43;;;4.20;99.90;;;;;;6125967;23;20442;-82
2021/03/09 00:26:53;;;;;;;69.67;40.10;;;4.30;99.90;;;;;;6126601;23;20744;-82
2021/03/09 00:29:20;;;;;;;70.93;41.37;;;4.20;99.90;;;;;;6136251;23;20415;-82
2021/03/09 00:31:47;;;;;;;78.57;42.73;;;4.20;99.90;;;;;;6126452;23;20510;-82
2021/03/09 00:34:29;;;;;;;76.60;41.87;;;4.10;99.90;;;;;;6107284;23;20468;31
2021/03/09 00:36:55;;;;;;;84.90;48.97;;;4.10;99.90;;;;;;6019035;23;20422;-82
2021/03/09 00:39:21;;;;;;;81.53;49.00;;;4.20;99.90;;;;;;6011362;23;20442;-82
2021/03/09 00:41:48;;;;;;;76.67;46.37;;;4.20;99.90;;;;;;6020509;23;20418;-83
2021/03/09 00:46:50;;;;;;;86.47;50.00;;;4.10;99.90;;;;;;6123786;23;20925;-83
2021/03/09 00:49:17;;;;;;;79.70;44.37;;;4.10;99.90;;;;;;6126485;23;20709;-83
2021/03/09 00:51:45;;;;;;;74.80;39.93;;;4.20;99.90;;;;;;6124537;23;20439;-83
2021/03/09 00:54:12;;;;;;;100.20;37.83;;;4.20;99.90;;;;;;6126005;23;20410;-82
2021/03/09 00:56:38;;;;;;;66.50;35.77;;;4.20;99.90;;;;;;6126096;23;20407;-82
2021/03/09 00:59:04;;;;;;;62.53;32.40;;;4.40;99.90;;;;;;6136366;23;20407;-83
2021/03/09 01:01:31;;;;;;;73.07;33.90;;;4.50;99.90;;;;;;6126658;23;20489;-83
2021/03/09 01:03:58;;;;;;;74.63;36.87;;;4.40;99.90;;;;;;6126447;23;20468;-81
2021/03/09 01:06:24;;;;;;;62.23;33.03;;;4.50;99.90;;;;;;6124653;23;20450;-83
2021/03/09 01:08:51;;;;;;;67.10;34.90;;;4.60;99.90;;;;;;6126310;23;20403;-82
2021/03/09 01:11:17;;;;;;;66.60;33.57;;;4.60;99.90;;;;;;6126366;23;20478;-83
2021/03/09 01:13:44;;;;;;;69.23;34.97;;;4.50;99.90;;;;;;6136073;23;20415;-83
2021/03/09 01:16:10;;;;;;;83.20;37.77;;;4.50;99.90;;;;;;6126140;23;20470;-83
2021/03/09 01:18:36;;;;;;;67.63;37.70;;;4.50;99.90;;;;;;6127119;23;20414;-83
2021/03/09 01:21:04;;;;;;;85.50;39.40;;;4.50;99.90;;;;;;6126342;23;20409;-83
2021/03/09 01:23:30;;;;;;;78.53;39.90;;;4.40;99.90;;;;;;6137919;23;20489;-83
2021/03/09 01:25:57;;;;;;;80.67;40.73;;;4.30;99.90;;;;;;6129620;23;20431;-83
2021/03/09 01:28:23;;;;;;;83.87;43.23;;;4.30;99.90;;;;;;6128234;23;20446;-82
2021/03/09 01:30:50;;;;;;;86.60;45.80;;;4.30;99.90;;;;;;6128088;23;20435;-82
2021/03/09 01:33:16;;;;;;;130.03;68.17;;;4.30;99.90;;;;;;6128076;23;20457;-82
2021/03/09 01:35:42;;;;;;;156.37;79.20;;;4.30;99.90;;;;;;6135959;23;20902;-81
2021/03/09 01:38:10;;;;;;;121.47;71.53;;;4.30;99.90;;;;;;6127803;23;20900;-82
2021/03/09 01:40:36;;;;;;;117.73;65.00;;;4.20;99.90;;;;;;6128107;23;20449;-81
2021/03/09 01:43:04;;;;;;;102.00;60.37;;;4.40;99.90;;;;;;6127573;23;20430;-81
2021/03/09 01:45:31;;;;;;;94.67;51.20;;;4.30;99.90;;;;;;6127864;23;20529;-82
2021/03/09 01:48:04;;;;;;;99.07;48.90;;;4.20;99.90;;;;;;6127580;23;20913;-82
2021/03/09 01:50:34;;;;;;;89.13;46.43;;;4.20;99.90;;;;;;6128069;23;20768;-82
2021/03/09 01:53:03;;;;;;;82.23;49.53;;;4.20;99.90;;;;;;6126636;23;20941;-81
2021/03/09 01:55:30;;;;;;;87.30;51.17;;;4.20;99.90;;;;;;6127998;23;20442;-82
2021/03/09 01:57:59;;;;;;;89.50;55.97;;;4.20;99.90;;;;;;6128058;23;20716;-82
2021/03/09 02:00:25;;;;;;;96.00;56.90;;;4.10;99.90;;;;;;6127492;23;20953;-82
2021/03/09 02:02:51;;;;;;;92.50;58.47;;;4.00;99.90;;;;;;6137155;23;20502;-82
2021/03/09 02:05:18;;;;;;;106.23;60.20;;;4.00;99.90;;;;;;6127488;23;20665;-82
2021/03/09 02:07:44;;;;;;;94.97;62.37;;;4.10;99.90;;;;;;6126098;23;20403;-82
2021/03/09 02:10:13;;;;;;;93.90;57.03;;;4.10;99.90;;;;;;6127801;23;20732;-82
2021/03/09 02:13:10;;;;;;;98.10;54.97;;;4.10;99.90;;;;;;6137283;23;20422;-82
2021/03/09 02:15:41;;;;;;;103.77;60.53;;;4.00;99.90;;;;;;6125859;23;20457;-82
2021/03/09 02:18:14;;;;;;;88.40;53.73;;;4.10;99.90;;;;;;6127774;23;20403;-82
2021/03/09 02:21:16;;;;;;;81.10;49.70;;;4.00;99.90;;;;;;6126128;23;20891;-81
2021/03/09 02:24:07;;;;;;;77.57;48.97;;;4.00;99.90;;;;;;6127308;23;20477;-81
2021/03/09 02:26:44;;;;;;;86.80;51.37;;;4.00;99.90;;;;;;6127836;23;20409;-82
2021/03/09 02:29:30;;;;;;;99.67;58.23;;;3.90;99.90;;;;;;6126809;23;20946;-82
2021/03/09 02:31:58;;;;;;;98.13;56.10;;;4.00;99.90;;;;;;6127509;23;20399;-82
2021/03/09 02:34:28;;;;;;;105.27;64.13;;;3.90;99.90;;;;;;6127659;23;20399;-81
2021/03/09 02:36:57;;;;;;;103.00;68.97;;;4.00;99.90;;;;;;6126177;23;20776;-82
2021/03/09 02:39:25;;;;;;;104.57;71.30;;;3.90;99.90;;;;;;6127592;23;20458;-82
2021/03/09 02:41:57;;;;;;;116.93;76.40;;;3.80;99.90;;;;;;6127530;23;20399;-81
2021/03/09 02:44:25;;;;;;;120.40;73.27;;;3.80;99.90;;;;;;6127351;23;20435;-81
2021/03/09 02:46:52;;;;;;;116.00;75.97;;;3.80;99.90;;;;;;6127035;23;20439;-80
2021/03/09 02:49:20;;;;;;;116.90;77.50;;;3.80;99.90;;;;;;6137319;23;20415;-81
2021/03/09 02:51:48;;;;;;;116.90;79.70;;;3.80;99.90;;;;;;6135508;23;20739;-81
2021/03/09 02:54:17;;;;;;;106.63;72.30;;;3.80;99.90;;;;;;6127422;23;20490;-80
2021/03/09 02:56:45;;;;;;;93.03;69.07;;;3.80;99.90;;;;;;6127539;23;20413;-80
2021/03/09 02:59:15;;;;;;;96.87;69.80;;;3.80;99.90;;;;;;6126977;23;20403;-81
2021/03/09 03:01:43;;;;;;;105.97;69.30;;;3.90;99.90;;;;;;6127392;23;20486;-80
2021/03/09 03:04:13;;;;;;;86.33;63.40;;;3.90;99.90;;;;;;6126850;23;20514;-80
2021/03/09 03:06:42;;;;;;;90.33;61.33;;;3.90;99.90;;;;;;6125919;23;20489;-81
2021/03/09 03:09:10;;;;;;;94.33;58.80;;;3.90;99.90;;;;;;6136841;23;20445;-81
2021/03/09 03:11:39;;;;;;;87.63;56.23;;;3.90;99.90;;;;;;6126851;23;20765;-80
2021/03/09 03:14:07;;;;;;;90.97;54.40;;;4.00;99.90;;;;;;6127250;23;20550;-80
2021/03/09 03:16:35;;;;;;;94.20;56.40;;;4.00;99.90;;;;;;6127294;23;20435;-81
2021/03/09 03:19:02;;;;;;;93.00;51.30;;;4.00;99.90;;;;;;6127090;23;20403;-81
2021/03/09 03:21:30;;;;;;;79.73;48.60;;;4.10;99.90;;;;;;6125649;23;20407;-81
2021/03/09 03:24:02;;;;;;;91.50;52.33;;;4.10;99.90;;;;;;6136436;23;20459;-81
2021/03/09 03:26:30;;;;;;;88.87;51.40;;;4.00;99.90;;;;;;6127104;23;20442;-81
2021/03/09 03:28:57;;;;;;;89.03;50.10;;;4.00;99.90;;;;;;6127012;23;20577;-81
2021/03/09 03:31:24;;;;;;;85.70;47.37;;;4.00;99.90;;;;;;6127073;23;20438;-81
2021/03/09 03:33:50;;;;;;;89.07;52.47;;;4.10;99.90;;;;;;6136517;23;20485;-80
2021/03/09 03:36:17;;;;;;;89.73;51.13;;;4.00;99.90;;;;;;6125349;23;20442;-81
2021/03/09 03:38:43;;;;;;;89.47;50.30;;;4.00;99.90;;;;;;6126559;23;20411;-80
2021/03/09 03:41:12;;;;;;;88.83;49.07;;;4.00;99.90;;;;;;6126958;23;20508;-80
2021/03/09 03:43:39;;;;;;;92.47;52.47;;;4.00;99.90;;;;;;6126863;23;20433;-81
2021/03/09 03:46:06;;;;;;;92.63;53.60;;;4.10;99.90;;;;;;6126592;23;20439;-80
2021/03/09 03:48:33;;;;;;;97.87;52.23;;;4.10;99.90;;;;;;6136845;23;20789;-80
2021/03/09 03:51:01;;;;;;;95.23;59.27;;;4.00;99.90;;;;;;6124839;23;20495;-81
2021/03/09 03:53:40;;;;;;;90.77;57.30;;;4.00;99.90;;;;;;6126868;23;20790;-80
2021/03/09 03:56:17;;;;;;;94.70;65.40;;;3.90;99.90;;;;;;6127035;23;20398;-80
2021/03/09 03:58:47;;;;;;;97.17;66.67;;;3.90;99.90;;;;;;6126793;23;20481;-80
2021/03/09 04:01:19;;;;;;;99.93;77.47;;;3.90;99.90;;;;;;6126904;23;20435;-81
2021/03/09 04:03:49;;;;;;;100.73;84.40;;;4.00;99.90;;;;;;6136497;23;20517;-81
2021/03/09 04:06:18;;;;;;;99.60;87.03;;;4.00;99.90;;;;;;6135045;23;20785;-81
2021/03/09 04:08:45;;;;;;;108.17;88.83;;;3.80;99.90;;;;;;6126785;23;20450;-80
2021/03/09 04:11:13;;;;;;;118.43;92.97;;;3.90;99.90;;;;;;6126697;23;20422;-80
2021/03/09 04:13:43;;;;;;;113.27;96.73;;;3.80;99.90;;;;;;6136149;23;20925;-80
2021/03/09 04:16:11;;;;;;;120.13;100.20;;;3.90;99.90;;;;;;6136503;23;20410;-82
2021/03/09 04:18:38;;;;;;;120.77;101.50;;;3.90;99.90;;;;;;6126684;23;20406;-82
2021/03/09 04:21:06;;;;;;;116.33;104.03;;;3.80;99.90;;;;;;6125242;23;20497;-82
2021/03/09 04:23:33;;;;;;;120.63;108.07;;;3.90;99.90;;;;;;6126235;23;20930;-81
2021/03/09 04:26:00;;;;;;;133.47;120.20;;;3.90;99.90;;;;;;6126746;23;20494;-82
2021/03/09 04:28:27;;;;;;;134.23;121.30;;;3.80;99.90;;;;;;6126083;23;20485;-81
2021/03/09 04:30:55;;;;;;;121.93;109.97;;;3.70;99.90;;;;;;6126480;23;20407;-82
2021/03/09 04:33:26;;;;;;;114.33;103.17;;;3.80;99.90;;;;;;6135958;23;20495;-81
2021/03/09 04:35:53;;;;;;;117.53;106.10;;;3.70;99.90;;;;;;6125326;23;20442;-81
2021/03/09 04:38:20;;;;;;;129.73;117.60;;;3.80;99.90;;;;;;6126184;23;20407;-81
2021/03/09 04:40:47;;;;;;;133.97;121.00;;;3.70;99.90;;;;;;6126554;23;20767;-82
2021/03/09 04:43:13;;;;;;;141.70;129.03;;;3.70;99.90;;;;;;6126278;23;20774;-81
2021/03/09 04:45:40;;;;;;;149.30;135.20;;;3.60;99.90;;;;;;6139149;23;20450;-82
2021/03/09 04:48:08;;;;;;;155.10;141.27;;;3.70;99.90;;;;;;6126532;23;20449;-82
2021/03/09 04:50:37;;;;;;;166.40;151.17;;;3.60;99.90;;;;;;6125115;23;20434;-81
2021/03/09 04:53:05;;;;;;;168.00;152.77;;;3.60;99.90;;;;;;6126162;23;20485;-82
2021/03/09 04:55:32;;;;;;;160.20;147.03;;;3.60;99.90;;;;;;6126161;23;20407;-81
2021/03/09 04:57:59;;;;;;;180.47;165.87;;;3.60;99.90;;;;;;6126244;23;20402;-82
2021/03/09 05:00:26;;;;;;;179.93;164.17;;;3.50;99.90;;;;;;6126310;23;20494;-82
2021/03/09 05:02:53;;;;;;;186.87;171.77;;;3.70;99.90;;;;;;6135827;23;20423;-81
2021/03/09 05:05:23;;;;;;;193.47;177.17;;;3.60;99.90;;;;;;6135853;23;20819;-82
2021/03/09 05:07:50;;;;;;;196.27;180.27;;;3.60;99.90;;;;;;6124798;23;20407;-81
2021/03/09 05:10:17;;;;;;;202.10;185.73;;;3.60;99.90;;;;;;6125944;23;20926;-82
2021/03/09 05:12:44;;;;;;;199.43;182.43;;;3.50;99.90;;;;;;6126256;23;20704;-81
2021/03/09 05:15:12;;;;;;;206.47;189.20;;;3.60;99.90;;;;;;6126407;23;20439;-81
2021/03/09 05:17:39;;;;;;;209.33;191.90;;;3.50;99.90;;;;;;6126230;23;20435;-81
2021/03/09 05:20:08;;;;;;;197.77;180.87;;;3.50;99.90;;;;;;6126331;23;20425;-81
2021/03/09 05:22:36;;;;;;;193.93;176.40;;;3.60;99.90;;;;;;6124786;23;20739;-81
2021/03/09 05:25:03;;;;;;;198.83;181.93;;;3.50;99.90;;;;;;6125708;23;20471;-82
2021/03/09 05:27:29;;;;;;;181.27;166.73;;;3.50;99.90;;;;;;6126170;23;20408;-82
2021/03/09 05:29:55;;;;;;;199.00;181.80;;;3.50;99.90;;;;;;6115855;23;20482;-80
2021/03/09 05:32:22;;;;;;;195.63;179.10;;;3.50;99.90;;;;;;6126271;23;20407;-80
2021/03/09 05:34:48;;;;;;;199.37;182.20;;;3.50;99.90;;;;;;6125930;23;20962;-80
2021/03/09 05:37:14;;;;;;;195.03;178.83;;;3.50;99.90;;;;;;6124657;23;20403;-80
2021/03/09 05:39:43;;;;;;;195.23;178.83;;;3.50;99.90;;;;;;6126008;23;20426;-80
2021/03/09 05:42:09;;;;;;;183.77;168.50;;;3.50;99.90;;;;;;6126201;23;20406;-80
2021/03/09 05:44:38;;;;;;;179.97;166.07;;;3.40;99.90;;;;;;6126032;23;20593;-80
2021/03/09 05:47:05;;;;;;;176.20;159.50;;;3.50;99.90;;;;;;6125947;23;20493;-81
2021/03/09 05:49:33;;;;;;;155.57;142.10;;;3.60;99.90;;;;;;6126030;23;20447;-80
2021/03/09 05:52:00;;;;;;;151.30;137.80;;;3.50;99.90;;;;;;6134298;23;20501;-80
2021/03/09 05:54:26;;;;;;;156.17;141.87;;;3.50;99.90;;;;;;6127755;23;20410;-80
2021/03/09 05:56:54;;;;;;;136.03;123.30;;;3.60;99.90;;;;;;6126330;23;20399;-79
2021/03/09 05:59:20;;;;;;;132.03;119.87;;;3.60;99.90;;;;;;6126232;23;20446;-80
2021/03/09 06:01:47;;;;;;;104.77;94.60;;;3.60;99.90;;;;;;6125862;23;20399;-80
2021/03/09 06:04:14;;;;;;;116.70;104.90;;;3.60;99.90;;;;;;6126107;23;20514;-80
2021/03/09 06:06:40;;;;;;;124.60;113.00;;;3.50;99.90;;;;;;6126248;23;20457;-80
2021/03/09 06:09:36;;;;;;;139.23;126.83;;;3.50;99.90;;;;;;6127675;23;20494;-80
2021/03/09 06:12:09;;;;;;;144.87;132.07;;;3.60;99.90;;;;;;6127725;23;20442;-83
2021/03/09 06:14:43;;;;;;;164.73;150.17;;;3.50;99.90;;;;;;6127847;23;20730;-80
2021/03/09 06:17:24;;;;;;;146.50;133.63;;;3.50;99.90;;;;;;6127628;23;20403;-80
2021/03/09 06:19:50;;;;;;;142.07;128.87;;;3.60;99.90;;;;;;6127690;23;20715;-80
2021/03/09 06:22:18;;;;;;;165.93;150.97;;;3.50;99.90;;;;;;6135947;23;20418;-80
2021/03/09 06:24:45;;;;;;;163.80;149.80;;;3.50;99.90;;;;;;6127629;23;20435;-82
2021/03/09 06:27:29;;;;;;;166.33;152.33;;;3.60;99.90;;;;;;6127645;23;20429;-81
2021/03/09 06:29:57;;;;;;;174.20;158.33;;;3.50;99.90;;;;;;6097821;23;20451;-82
2021/03/09 06:32:26;;;;;;;153.77;139.77;;;3.60;99.90;;;;;;6108027;23;20416;-81
2021/03/09 06:34:54;;;;;;;160.30;146.10;;;3.60;99.90;;;;;;6098486;23;20516;-81
2021/03/09 06:37:21;;;;;;;173.33;158.20;;;3.60;99.90;;;;;;6096135;23;20432;-80
2021/03/09 06:39:51;;;;;;;164.57;149.93;;;3.70;99.90;;;;;;6097802;23;20439;-80
2021/03/09 06:42:20;;;;;;;152.03;138.33;;;3.70;99.90;;;;;;6098178;23;20407;-81
2021/03/09 06:44:57;;;;;;;156.77;142.47;;;3.70;99.90;;;;;;6098001;23;20440;-81
2021/03/09 06:47:38;;;;;;;164.67;149.97;;;3.60;99.90;;;;;;6098163;23;20404;-81
2021/03/09 06:50:06;;;;;;;160.20;146.20;;;3.60;99.90;;;;;;6097450;23;20404;-80
2021/03/09 06:52:33;;;;;;;167.03;152.27;;;3.60;99.90;;;;;;6096009;23;20439;-80
2021/03/09 06:54:59;;;;;;;182.10;166.33;;;3.60;99.90;;;;;;6098197;23;20427;-80
2021/03/09 06:57:37;;;;;;;159.63;145.57;;;3.60;99.90;;;;;;6081714;23;20440;-80
2021/03/09 07:00:07;;;;;;;159.87;146.57;;;3.60;99.90;;;;;;6097962;23;20403;-82
2021/03/09 07:02:33;;;;;;;158.07;144.70;;;3.80;99.90;;;;;;6097937;23;20404;-82
2021/03/09 07:05:05;;;;;;;171.13;156.20;;;3.80;99.90;;;;;;6107523;23;20436;-82
2021/03/09 07:07:32;;;;;;;160.50;146.60;;;3.90;99.90;;;;;;6085439;23;20431;-82
2021/03/09 07:10:01;;;;;;;153.60;140.77;;;4.00;99.90;;;;;;6097277;23;20408;-83
2021/03/09 07:12:28;;;;;;;155.30;141.90;;;4.00;99.90;;;;;;6097935;23;20471;-82
2021/03/09 07:14:56;;;;;;;150.07;137.97;;;3.90;99.90;;;;;;6097933;23;20404;-82
2021/03/09 07:17:25;;;;;;;159.70;146.83;;;3.90;99.90;;;;;;6097900;23;20741;-83
2021/03/09 07:19:54;;;;;;;178.70;164.20;;;3.80;99.90;;;;;;6107631;23;20769;-83
2021/03/09 07:22:22;;;;;;;166.07;153.23;;;3.90;99.90;;;;;;6095938;23;20435;-82
2021/03/09 07:24:58;;;;;;;175.47;161.67;;;4.00;99.90;;;;;;6097162;23;20464;-82
2021/03/09 07:27:30;;;;;;;172.07;159.07;;;3.90;99.90;;;;;;6106788;23;20955;-82
2021/03/09 07:29:58;;;;;;;151.23;139.43;;;3.90;99.90;;;;;;6097321;23;20444;-82
2021/03/09 07:32:28;;;;;;;152.77;140.10;;;3.80;99.90;;;;;;6096706;23;20549;-82
2021/03/09 07:34:56;;;;;;;156.57;142.73;;;3.80;99.90;;;;;;6127047;23;20403;-82
2021/03/09 07:37:23;;;;;;;159.17;146.37;;;3.80;99.90;;;;;;6134922;23;20438;-82
2021/03/09 07:39:52;;;;;;;160.80;146.87;;;3.80;99.90;;;;;;6134357;23;20942;-82
2021/03/09 07:42:20;;;;;;;164.80;151.50;;;3.90;99.90;;;;;;6135750;23;20767;-82
2021/03/09 07:44:47;;;;;;;154.90;142.43;;;3.90;99.90;;;;;;6135311;23;20969;-82
2021/03/09 07:47:16;;;;;;;162.30;148.97;;;3.90;99.90;;;;;;6136263;23;20515;-82
2021/03/09 07:49:45;;;;;;;170.80;155.90;;;4.00;99.90;;;;;;6125985;23;20437;-83
2021/03/09 07:52:17;;;;;;;166.47;153.23;;;4.00;99.90;;;;;;6092036;23;20451;-82
2021/03/09 07:57:39;;;;;;;169.67;155.77;;;3.90;99.90;;;;;;6117009;23;20501;-82
2021/03/09 08:00:08;;;;;;;177.83;163.90;;;3.90;99.90;;;;;;6135939;23;20480;-82
2021/03/09 08:02:46;;;;;;;178.17;163.77;;;4.00;99.90;;;;;;6126305;23;20431;-82
2021/03/09 08:05:16;;;;;;;172.17;158.27;;;4.10;99.90;;;;;;6136096;23;20430;-82
2021/03/09 08:07:46;;;;;;;174.90;160.50;;;4.20;99.90;;;;;;6124590;23;20768;-82
2021/03/09 08:10:38;;;;;;;178.03;163.83;;;4.30;99.90;;;;;;6126182;23;20403;-82
2021/03/09 08:13:26;;;;;;;152.03;139.40;;;4.30;99.90;;;;;;6125713;23;20402;-82
2021/03/09 08:16:30;;;;;;;147.63;135.27;;;4.40;99.90;;;;;;6135620;23;20426;-82
2021/03/09 08:19:07;;;;;;;134.33;122.60;;;4.40;99.90;;;;;;6125661;23;20409;-82
2021/03/09 08:21:55;;;;;;;138.47;125.97;;;4.30;99.90;;;;;;6133834;23;20950;-82
2021/03/09 08:24:57;;;;;;;142.73;129.00;;;4.30;99.90;;;;;;6125868;23;20438;-82
2021/03/09 08:27:40;;;;;;;130.00;117.43;;;4.20;99.90;;;;;;6119700;23;20728;-81
2021/03/09 08:30:38;;;;;;;131.23;120.13;;;4.30;99.90;;;;;;6122452;23;20407;-82
2021/03/09 08:33:35;;;;;;;131.97;119.93;;;4.20;99.90;;;;;;6123765;23;20883;-82
2021/03/09 08:36:17;;;;;;;122.43;111.30;;;4.20;99.90;;;;;;6132672;23;21173;-81
2021/03/09 08:39:05;;;;;;;134.57;122.67;;;4.20;99.90;;;;;;6123171;23;20449;-82
2021/03/09 08:42:04;;;;;;;129.93;118.43;;;4.20;99.90;;;;;;6125035;23;20425;-82
2021/03/09 08:44:31;;;;;;;123.13;112.20;;;4.20;99.90;;;;;;6135925;23;20533;-82
2021/03/09 08:47:00;;;;;;;143.70;130.30;;;4.20;99.90;;;;;;6126524;23;20474;-82
2021/03/09 08:49:45;;;;;;;141.27;128.87;;;4.20;99.90;;;;;;6126305;23;20487;-81
2021/03/09 08:52:33;;;;;;;141.60;129.30;;;4.20;99.90;;;;;;6125000;23;20485;-81
2021/03/09 08:55:06;;;;;;;152.67;138.93;;;4.20;99.90;;;;;;6125661;23;20411;-82
2021/03/09 08:57:33;;;;;;;143.23;130.47;;;4.30;99.90;;;;;;6126129;23;20438;-82
2021/03/09 09:00:04;;;;;;;148.63;135.50;;;4.20;99.90;;;;;;6126222;23;20720;-81
2021/03/09 09:02:30;;;;;;;151.03;138.37;;;4.10;99.90;;;;;;6126045;23;20478;-81
2021/03/09 09:04:59;;;;;;;160.50;146.87;;;4.00;99.90;;;;;;6126474;23;20786;-81
2021/03/09 09:07:27;;;;;;;164.70;150.43;;;3.90;99.90;;;;;;6124809;23;20796;-81
2021/03/09 09:09:56;;;;;;;156.40;144.30;;;3.80;99.90;;;;;;6125904;23;20899;-81
2021/03/09 09:12:27;;;;;;;173.47;158.67;;;3.70;99.90;;;;;;6125944;23;20399;-80
2021/03/09 09:15:08;;;;;;;170.43;157.53;;;3.80;99.90;;;;;;6126693;23;20403;-81
2021/03/09 09:17:35;;;;;;;172.10;158.70;;;3.80;99.90;;;;;;6126007;23;20511;-82
2021/03/09 09:20:06;;;;;;;171.20;157.47;;;3.80;99.90;;;;;;6126349;23;20494;-81
2021/03/09 09:22:33;;;;;;;168.07;155.70;;;3.80;99.90;;;;;;6124883;23;20426;-82
2021/03/09 09:25:02;;;;;;;170.87;157.30;;;3.70;99.90;;;;;;6126157;23;20470;-81
2021/03/09 09:27:37;;;;;;;171.37;158.90;;;3.70;99.90;;;;;;6126165;23;20501;-81
2021/03/09 09:30:06;;;;;;;173.77;159.77;;;3.70;99.90;;;;;;6125974;23;20904;-81
2021/03/09 09:32:46;;;;;;;177.30;163.10;;;3.70;99.90;;;;;;6125826;23;20490;-82
2021/03/09 09:35:12;;;;;;;170.73;157.70;;;3.70;99.90;;;;;;6135732;23;20445;-82
2021/03/09 09:37:45;;;;;;;179.20;165.67;;;3.60;99.90;;;;;;6134235;23;20902;-82
2021/03/09 09:40:12;;;;;;;185.77;171.17;;;3.60;99.90;;;;;;6127818;23;20435;-82
2021/03/09 09:42:40;;;;;;;195.40;180.60;;;3.70;99.90;;;;;;6127888;23;20949;-82
2021/03/09 09:45:07;;;;;;;201.03;184.80;;;3.70;99.90;;;;;;6138053;23;20431;-82
2021/03/09 09:47:34;;;;;;;202.57;187.43;;;3.80;99.90;;;;;;6128058;23;20485;-82
2021/03/09 09:50:03;;;;;;;205.33;190.33;;;3.80;99.90;;;;;;6127981;23;20493;-82
2021/03/09 09:52:29;;;;;;;218.23;202.03;;;3.90;99.90;;;;;;6126661;23;20498;-81
2021/03/09 09:54:56;;;;;;;215.90;199.33;;;4.00;99.90;;;;;;6128030;23;20493;-82
2021/03/09 09:57:23;;;;;;;203.83;188.73;;;4.10;99.90;;;;;;6127529;23;20514;-82
2021/03/09 09:59:50;;;;;;;194.93;180.47;;;4.20;99.90;;;;;;6128109;23;20406;-82
2021/03/09 10:02:19;;;;;;;194.10;178.63;;;4.30;99.90;;;;;;6121787;23;20489;-82
2021/03/09 10:04:45;;;;;;;173.27;159.87;;;4.30;99.90;;;;;;6125260;23;20542;-81
2021/03/09 10:07:17;;;;;;;167.33;153.83;;;4.60;99.90;;;;;;6121856;23;20493;-80
2021/03/09 10:10:03;;;;;;;158.87;145.10;;;4.60;99.90;;;;;;6125090;23;20443;-81
2021/03/09 10:12:36;;;;;;;152.70;139.90;;;4.60;99.90;;;;;;6134417;23;20526;-82
2021/03/09 10:15:06;;;;;;;147.90;136.10;;;4.60;99.90;;;;;;6129493;23;20403;-81
2021/03/09 10:17:33;;;;;;;146.97;134.47;;;4.60;99.90;;;;;;6134850;23;20410;-81
2021/03/09 10:19:59;;;;;;;147.53;134.53;;;4.60;99.90;;;;;;6123696;23;20458;-81
2021/03/09 10:22:27;;;;;;;138.20;126.77;;;4.70;99.90;;;;;;6122550;23;20518;-81
2021/03/09 10:25:07;;;;;;;145.17;132.37;;;4.60;99.90;;;;;;6130204;23;20470;-82
2021/03/09 10:27:33;;;;;;;140.83;128.53;;;4.70;99.90;;;;;;6124467;23;20441;-81
2021/03/09 10:30:00;;;;;;;151.37;138.37;;;4.60;99.90;;;;;;6125493;23;20403;-81
2021/03/09 10:32:27;;;;;;;150.83;138.10;;;4.60;99.90;;;;;;6125195;23;20935;-81
2021/03/09 10:34:55;;;;;;;163.40;148.13;;;4.70;99.90;;;;;;6125641;23;20478;-81
2021/03/09 10:37:32;;;;;;;170.47;155.97;;;4.60;99.90;;;;;;6124352;23;20411;-82
2021/03/09 10:40:00;;;;;;;166.30;151.80;;;4.60;99.90;;;;;;6124971;23;20403;-81
2021/03/09 10:42:28;;;;;;;185.83;169.23;;;4.70;99.90;;;;;;6135224;23;20445;-82
2021/03/09 10:44:55;;;;;;;173.33;159.20;;;4.70;99.90;;;;;;6125945;23;20441;-81
2021/03/09 10:47:21;;;;;;;166.33;152.63;;;4.70;99.90;;;;;;6125569;23;20493;-81
2021/03/09 10:49:49;;;;;;;167.70;153.03;;;4.60;99.90;;;;;;6126424;23;20453;-81
2021/03/09 10:52:15;;;;;;;187.67;171.67;;;4.70;99.90;;;;;;6125318;23;20414;-82
2021/03/09 10:54:44;;;;;;;189.33;173.43;;;4.90;99.90;;;;;;6137092;23;20443;-82
2021/03/09 10:57:11;;;;;;;209.80;191.43;;;4.80;99.90;;;;;;6136764;23;20446;-82
2021/03/09 10:59:40;;;;;;;224.37;206.17;;;4.90;99.90;;;;;;6127405;23;20403;-83
2021/03/09 11:02:14;;;;;;;238.33;218.17;;;5.00;99.90;;;;;;6136743;23;20422;-82
2021/03/09 11:04:41;;;;;;;240.50;221.00;;;5.20;99.90;;;;;;6127185;23;20438;-81
2021/03/09 11:07:08;;;;;;;235.10;216.37;;;5.40;99.90;;;;;;6125291;23;20977;-81
2021/03/09 11:09:37;;;;;;;224.00;204.77;;;5.50;99.90;;;;;;6127245;23;20434;-82
2021/03/09 11:12:07;;;;;;;202.07;185.27;;;5.50;99.90;;;;;;6127271;23;20403;-81
2021/03/09 11:14:33;;;;;;;235.10;214.05;;;5.50;99.90;;;;;;6125268;23;20433;-81
2021/03/09 11:17:06;;;;;;;198.77;180.07;;;5.50;99.90;;;;;;6127391;23;20234;-81
2021/03/09 11:19:33;;;;;;;184.90;167.60;;;5.70;99.90;;;;;;6127019;23;20879;-81
2021/03/09 11:22:00;;;;;;;182.63;166.27;;;5.70;99.90;;;;;;6134989;23;20410;-81
2021/03/09 11:24:30;;;;;;;179.83;164.37;;;5.90;99.90;;;;;;6127324;23;20426;-81
2021/03/09 11:27:00;;;;;;;177.17;160.97;;;6.00;99.90;;;;;;6136370;23;20985;-81
2021/03/09 11:29:39;;;;;;;;;;;;;;;;;;;;;
2021/03/09 11:32:07;;;;;;;159.33;144.23;;;6.00;99.90;;;;;;6126639;23;20435;-81
2021/03/09 11:34:33;;;;;;;156.00;140.83;;;6.10;99.90;;;;;;6136565;23;20415;-80
2021/03/09 11:37:00;;;;;;;143.57;129.43;;;6.20;99.90;;;;;;6125098;23;20879;-81
2021/03/09 11:39:37;;;;;;;145.83;131.27;;;6.30;99.90;;;;;;6127095;23;20478;-81
2021/03/09 11:42:04;;;;;;;138.17;123.87;;;6.20;99.90;;;;;;6126797;23;20405;-81
2021/03/09 11:44:32;;;;;;;135.67;121.63;;;6.30;99.90;;;;;;6126966;23;20513;-80
2021/03/09 11:46:58;;;;;;;131.03;117.50;;;6.10;99.90;;;;;;6085403;23;20411;-80
2021/03/09 11:49:24;;;;;;;124.20;110.67;;;6.10;99.90;;;;;;6127085;23;20466;-80
2021/03/09 11:51:50;;;;;;;131.30;117.27;;;6.10;99.90;;;;;;6125493;23;20735;-80
2021/03/09 11:54:17;;;;;;;132.43;117.80;;;6.10;99.90;;;;;;6136474;23;20468;-80
2021/03/09 11:56:44;;;;;;;130.77;117.77;;;6.10;99.90;;;;;;6126720;23;20518;-80
2021/03/09 11:59:10;;;;;;;140.77;126.90;;;6.00;99.90;;;;;;6136335;23;20418;-80
2021/03/09 12:01:36;;;;;;;150.03;135.10;;;6.00;99.90;;;;;;6126784;23;20403;-80
2021/03/09 12:04:03;;;;;;;154.20;138.00;;;6.10;99.90;;;;;;6126700;23;20407;-80
2021/03/09 12:06:29;;;;;;;159.90;144.33;;;6.20;99.90;;;;;;6124792;23;20871;-80
2021/03/09 12:08:55;;;;;;;153.87;138.80;;;6.40;99.90;;;;;;6126756;23;20403;-80
2021/03/09 12:11:22;;;;;;;147.67;133.37;;;6.20;99.90;;;;;;6126691;23;20410;-80
2021/03/09 12:13:49;;;;;;;151.87;133.23;;;6.30;99.90;;;;;;6126704;23;20439;-79
2021/03/09 12:16:15;;;;;;;142.87;128.13;;;6.30;99.90;;;;;;6126913;23;20431;-80
2021/03/09 12:18:42;;;;;;;153.47;128.77;;;6.20;99.90;;;;;;6126853;23;20486;-80
2021/03/09 12:21:08;;;;;;;143.63;129.47;;;6.40;99.90;;;;;;6124781;23;20411;-80
2021/03/09 12:23:34;;;;;;;144.13;130.20;;;6.50;99.90;;;;;;6126755;23;20484;-80
2021/03/09 12:26:00;;;;;;;133.07;119.83;;;6.70;99.90;;;;;;6126628;23;20838;-80
2021/03/09 12:28:27;;;;;;;124.10;110.80;;;6.90;99.90;;;;;;6126590;23;20407;-80
2021/03/09 12:30:54;;;;;;;105.07;84.47;;;7.20;99.90;;;;;;6126342;23;20962;-80
2021/03/09 12:33:20;;;;;;;98.67;79.73;;;7.50;99.90;;;;;;6126659;23;20450;-80
2021/03/09 12:35:47;;;;;;;86.47;57.10;;;8.00;99.90;;;;;;6125730;23;20407;-80
2021/03/09 12:38:13;;;;;;;71.57;42.47;;;7.90;99.90;;;;;;6126086;23;20430;-81
2021/03/09 12:40:41;;;;;;;75.17;46.70;;;7.80;99.90;;;;;;6126603;23;20407;-80
2021/03/09 12:43:08;;;;;;;70.25;43.40;;;7.70;99.90;;;;;;6126359;23;20830;-80
2021/03/09 12:45:35;;;;;;;71.93;43.83;;;7.60;99.90;;;;;;6126190;23;20187;-80